Time;durP1;ratioP1;P1;durP2;ratioP2;P2;SDS_P1;SDS_P2;PMS_P1;PMS_P2;Temp;Humidity;BMP_temperature;BMP_pressure;BME280_temperature;BME280_humidity;BME280_pressure;Samples;Min_cycle;Max_cycle;Signal;HPM_P1;HPM_P2
2023/03/08 00:01:49;;;;;;;1.27;0.70;;;0.90;99.90;;;;;;6250983;22;20019;-80
2023/03/08 00:04:20;;;;;;;3.08;0.88;;;1.00;99.90;;;;;;6251119;22;20024;-80
2023/03/08 00:06:45;;;;;;;1.90;0.90;;;1.00;99.90;;;;;;6250948;22;20094;-79
2023/03/08 00:09:11;;;;;;;4.72;1.70;;;1.00;99.90;;;;;;6278545;22;20043;-79
2023/03/08 00:11:37;;;;;;;8.25;1.35;;;0.90;99.90;;;;;;6251124;22;20023;-79
2023/03/08 00:14:02;;;;;;;4.03;1.15;;;0.90;99.90;;;;;;6250971;22;20062;-79
2023/03/08 00:16:28;;;;;;;4.35;1.38;;;1.00;99.90;;;;;;6251087;22;20403;-79
2023/03/08 00:18:54;;;;;;;6.05;1.55;;;0.80;99.90;;;;;;6278049;22;20317;-79
2023/03/08 00:21:20;;;;;;;4.10;1.25;;;0.90;99.90;;;;;;6250956;22;20157;-79
2023/03/08 00:23:45;;;;;;;4.85;1.48;;;0.90;99.90;;;;;;6278286;22;20027;-79
2023/03/08 00:26:12;;;;;;;2.95;1.10;;;0.80;99.90;;;;;;6278269;22;20019;-79
2023/03/08 00:28:38;;;;;;;9.30;2.40;;;1.00;99.90;;;;;;6277843;22;20023;-79
2023/03/08 00:31:06;;;;;;;3.22;0.70;;;0.90;99.90;;;;;;6278224;22;20007;-79
2023/03/08 00:33:33;;;;;;;2.63;0.50;;;1.00;99.90;;;;;;6277906;22;20456;-79
2023/03/08 00:36:00;;;;;;;4.65;1.20;;;1.10;99.90;;;;;;6250546;22;20027;-79
2023/03/08 00:38:27;;;;;;;2.33;0.50;;;1.10;99.90;;;;;;6278263;22;20138;-79
2023/03/08 00:40:53;;;;;;;2.65;0.75;;;1.00;99.90;;;;;;6250897;22;20063;-79
2023/03/08 00:43:19;;;;;;;3.42;0.80;;;1.00;99.90;;;;;;6250740;22;20095;-79
2023/03/08 00:45:44;;;;;;;2.70;0.52;;;1.10;99.90;;;;;;6250490;22;20042;-79
2023/03/08 00:48:10;;;;;;;4.57;0.75;;;1.10;99.90;;;;;;6250704;22;20035;-79
2023/03/08 00:50:36;;;;;;;3.15;0.65;;;1.00;99.90;;;;;;6250690;22;20070;-79
2023/03/08 00:53:02;;;;;;;2.67;0.57;;;1.00;99.90;;;;;;6278146;22;20359;-79
2023/03/08 00:55:28;;;;;;;2.75;0.38;;;1.10;99.90;;;;;;6278070;22;20012;-79
2023/03/08 00:57:53;;;;;;;1.52;0.50;;;1.10;99.90;;;;;;6278122;22;20435;-79
2023/03/08 01:00:19;;;;;;;2.75;0.35;;;1.10;99.90;;;;;;6250591;22;20317;-80
2023/03/08 01:02:45;;;;;;;2.10;0.20;;;1.20;99.90;;;;;;6277424;22;20521;-80
2023/03/08 01:05:12;;;;;;;0.95;0.40;;;1.20;99.90;;;;;;6250589;22;20095;-80
2023/03/08 01:07:38;;;;;;;5.38;0.57;;;1.20;99.90;;;;;;6250529;22;20035;-80
2023/03/08 01:10:04;;;;;;;3.88;0.47;;;1.20;99.90;;;;;;6250290;22;20412;-79
2023/03/08 01:12:34;;;;;;;1.83;0.30;;;1.30;99.90;;;;;;6277795;22;20015;-80
2023/03/08 01:15:00;;;;;;;1.20;0.30;;;1.20;99.90;;;;;;6277478;22;20452;-79
2023/03/08 01:17:25;;;;;;;6.85;0.43;;;1.20;99.90;;;;;;6277772;22;20015;-79
2023/03/08 01:19:51;;;;;;;4.22;0.47;;;1.20;99.90;;;;;;6250479;22;20031;-79
2023/03/08 01:22:16;;;;;;;0.95;0.20;;;1.10;99.90;;;;;;6250398;22;20011;-79
2023/03/08 01:24:47;;;;;;;2.92;0.35;;;1.20;99.90;;;;;;6250441;22;20023;-79
2023/03/08 01:27:13;;;;;;;4.20;0.40;;;1.10;99.90;;;;;;6277857;22;20023;-79
2023/03/08 01:29:39;;;;;;;3.55;0.47;;;1.10;99.90;;;;;;6250240;22;20095;-79
2023/03/08 01:32:05;;;;;;;3.75;0.50;;;1.10;99.90;;;;;;6277440;22;20043;-80
2023/03/08 01:34:31;;;;;;;3.28;0.32;;;1.00;99.90;;;;;;6250271;22;20043;-79
2023/03/08 01:36:56;;;;;;;4.25;0.57;;;1.00;99.90;;;;;;6250818;22;20078;-79
2023/03/08 01:39:22;;;;;;;4.70;0.47;;;1.10;99.90;;;;;;6277584;22;20019;-79
2023/03/08 01:41:48;;;;;;;1.45;0.80;;;1.10;99.90;;;;;;6250235;22;20444;-79
2023/03/08 01:44:17;;;;;;;2.50;0.65;;;1.00;99.90;;;;;;6250170;22;20019;-79
2023/03/08 01:46:43;;;;;;;3.35;0.63;;;1.00;99.90;;;;;;6250215;22;20022;-79
2023/03/08 01:49:27;;;;;;;2.05;1.25;;;1.00;99.90;;;;;;6249828;22;20019;-79
2023/03/08 01:51:59;;;;;;;1.17;0.20;;;1.00;99.90;;;;;;6250135;22;20039;-79
2023/03/08 01:54:46;;;;;;;2.13;0.55;;;0.90;99.90;;;;;;6250103;22;20024;-79
2023/03/08 01:57:32;;;;;;;1.38;0.30;;;0.80;99.90;;;;;;6250402;22;20448;-79
2023/03/08 02:00:09;;;;;;;6.95;0.73;;;0.80;99.90;;;;;;6250289;22;20047;-79
2023/03/08 02:02:41;;;;;;;6.18;0.52;;;0.80;99.90;;;;;;6249870;22;20115;-79
2023/03/08 02:05:09;;;;;;;1.30;0.30;;;0.80;99.90;;;;;;6250049;22;20020;-79
2023/03/08 02:07:35;;;;;;;2.10;0.40;;;0.70;99.90;;;;;;6250225;22;20015;-79
2023/03/08 02:10:01;;;;;;;1.52;0.43;;;0.80;99.90;;;;;;6249842;22;20099;-79
2023/03/08 02:12:27;;;;;;;0.77;0.25;;;0.80;99.90;;;;;;6249843;22;20070;-79
2023/03/08 02:14:55;;;;;;;4.13;0.50;;;0.70;99.90;;;;;;6276911;22;20440;-79
2023/03/08 02:17:20;;;;;;;5.05;0.40;;;0.60;99.90;;;;;;6277365;22;20015;-79
2023/03/08 02:20:14;;;;;;;2.72;0.40;;;0.50;99.90;;;;;;6249674;22;20030;-79
2023/03/08 02:22:44;;;;;;;3.03;0.50;;;0.50;99.90;;;;;;6250030;22;20028;-79
2023/03/08 02:25:18;;;;;;;3.28;0.32;;;0.50;99.90;;;;;;6277109;22;20015;-79
2023/03/08 02:27:44;;;;;;;2.92;0.60;;;0.50;99.90;;;;;;6277178;22;20034;-79
2023/03/08 02:30:13;;;;;;;3.60;0.40;;;0.50;99.90;;;;;;6277187;22;20030;-79
2023/03/08 02:32:39;;;;;;;1.15;0.40;;;0.40;99.90;;;;;;6276733;22;20348;-79
2023/03/08 02:35:05;;;;;;;3.03;0.40;;;0.40;99.90;;;;;;6249848;22;20011;-79
2023/03/08 02:37:32;;;;;;;2.65;0.75;;;0.40;99.90;;;;;;6249714;22;20028;-79
2023/03/08 02:39:58;;;;;;;7.65;0.88;;;0.50;99.90;;;;;;6276874;22;20023;-79
2023/03/08 02:42:24;;;;;;;1.10;0.38;;;0.40;99.90;;;;;;6249811;22;20031;-79
2023/03/08 02:44:49;;;;;;;3.58;0.30;;;0.50;99.90;;;;;;6249702;22;20332;-79
2023/03/08 02:47:15;;;;;;;1.77;0.38;;;0.60;99.90;;;;;;6249578;22;20055;-79
2023/03/08 02:49:40;;;;;;;3.85;0.40;;;0.50;99.90;;;;;;6277047;22;20395;-79
2023/03/08 02:52:06;;;;;;;3.55;0.45;;;0.60;99.90;;;;;;6249631;22;20035;-79
2023/03/08 02:54:32;;;;;;;4.57;0.63;;;0.60;99.90;;;;;;6249621;22;20028;-79
2023/03/08 02:56:58;;;;;;;2.95;0.52;;;0.60;99.90;;;;;;6276734;22;20016;-79
2023/03/08 02:59:23;;;;;;;1.35;0.43;;;0.60;99.90;;;;;;6277082;22;20082;-79
2023/03/08 03:01:50;;;;;;;2.55;0.60;;;0.60;99.90;;;;;;6276768;22;20506;-80
2023/03/08 03:04:27;;;;;;;5.70;0.50;;;0.60;99.90;;;;;;6276536;22;20123;-80
2023/03/08 03:06:53;;;;;;;3.15;0.30;;;0.70;99.90;;;;;;6249665;22;20015;-79
2023/03/08 03:09:18;;;;;;;1.58;0.52;;;0.50;99.90;;;;;;6276678;22;20041;-79
2023/03/08 03:11:44;;;;;;;1.67;0.35;;;0.50;99.90;;;;;;6249645;22;20019;-79
2023/03/08 03:14:09;;;;;;;1.13;0.30;;;0.60;99.90;;;;;;6249534;22;20023;-80
2023/03/08 03:16:36;;;;;;;2.40;0.50;;;0.70;99.90;;;;;;6249721;22;20343;-80
2023/03/08 03:19:01;;;;;;;3.65;0.45;;;0.60;99.90;;;;;;6249604;22;20099;-80
2023/03/08 03:21:27;;;;;;;0.85;0.30;;;0.60;99.90;;;;;;6249600;22;20105;-79
2023/03/08 03:23:54;;;;;;;0.82;0.30;;;0.70;99.90;;;;;;6249655;22;20388;-79
2023/03/08 03:26:22;;;;;;;1.00;0.22;;;0.70;99.90;;;;;;6249589;22;20051;-79
2023/03/08 03:28:47;;;;;;;1.23;0.20;;;0.60;99.90;;;;;;6249866;22;20035;-79
2023/03/08 03:31:19;;;;;;;3.03;0.30;;;0.60;99.90;;;;;;6249438;22;20435;-79
2023/03/08 03:33:46;;;;;;;1.20;0.63;;;0.60;99.90;;;;;;6251449;22;20019;-79
2023/03/08 03:36:14;;;;;;;0.77;0.20;;;0.50;99.90;;;;;;6251471;22;20051;-79
2023/03/08 03:38:40;;;;;;;1.15;0.30;;;0.60;99.90;;;;;;6251339;22;20321;-79
2023/03/08 03:41:12;;;;;;;2.13;0.38;;;0.60;99.90;;;;;;6278677;22;20043;-79
2023/03/08 03:43:38;;;;;;;3.35;0.40;;;0.60;99.90;;;;;;6251476;22;20051;-79
2023/03/08 03:46:06;;;;;;;3.90;0.50;;;0.50;99.90;;;;;;6278354;22;20051;-79
2023/03/08 03:48:34;;;;;;;1.70;0.30;;;0.50;99.90;;;;;;6278439;22;20062;-79
2023/03/08 03:51:08;;;;;;;0.82;0.20;;;0.50;99.90;;;;;;6278648;22;20450;-79
2023/03/08 03:53:34;;;;;;;2.85;0.32;;;0.50;99.90;;;;;;6251230;22;20058;-80
2023/03/08 03:56:07;;;;;;;2.05;0.50;;;0.40;99.90;;;;;;6251169;22;20015;-79
2023/03/08 03:58:33;;;;;;;2.03;0.38;;;0.40;99.90;;;;;;6251288;22;20020;-79
2023/03/08 04:00:59;;;;;;;1.58;0.32;;;0.40;99.90;;;;;;6250928;22;20018;-80
2023/03/08 04:03:25;;;;;;;3.78;0.32;;;0.50;99.90;;;;;;6251255;22;20030;-79
2023/03/08 04:05:50;;;;;;;1.77;0.45;;;0.40;99.90;;;;;;6251168;22;20047;-79
2023/03/08 04:08:16;;;;;;;1.83;0.30;;;0.50;99.90;;;;;;6251044;22;20020;-79
2023/03/08 04:10:42;;;;;;;0.98;0.30;;;0.50;99.90;;;;;;6250833;22;20016;-79
2023/03/08 04:13:10;;;;;;;1.88;0.30;;;0.40;99.90;;;;;;6250924;22;20023;-79
2023/03/08 04:15:36;;;;;;;1.88;0.57;;;0.50;99.90;;;;;;6278102;22;20336;-79
2023/03/08 04:18:02;;;;;;;2.13;0.40;;;0.50;99.90;;;;;;6251110;22;20510;-79
2023/03/08 04:20:27;;;;;;;1.92;0.30;;;0.60;99.90;;;;;;6250924;22;20012;-79
2023/03/08 04:22:53;;;;;;;1.58;0.43;;;0.50;99.90;;;;;;6251061;22;20020;-79
2023/03/08 04:25:19;;;;;;;1.60;0.20;;;0.50;99.90;;;;;;6251019;22;20022;-80
2023/03/08 04:27:45;;;;;;;1.00;0.40;;;0.40;99.90;;;;;;6278249;22;20020;-79
2023/03/08 04:30:11;;;;;;;1.92;0.40;;;0.40;99.90;;;;;;6250715;22;20015;-79
2023/03/08 04:32:37;;;;;;;2.40;0.85;;;0.30;99.90;;;;;;6250832;22;20016;-79
2023/03/08 04:35:03;;;;;;;1.23;0.25;;;0.30;99.90;;;;;;6250677;22;20027;-79
2023/03/08 04:37:29;;;;;;;1.45;0.20;;;0.30;99.90;;;;;;6250852;22;20026;-79
2023/03/08 04:39:55;;;;;;;2.92;0.60;;;0.30;99.90;;;;;;6250757;22;20443;-80
2023/03/08 04:42:20;;;;;;;2.08;0.45;;;0.20;99.90;;;;;;6250745;22;20023;-79
2023/03/08 04:44:46;;;;;;;1.35;0.30;;;0.10;99.90;;;;;;6249900;22;20112;-79
2023/03/08 04:47:12;;;;;;;2.72;0.50;;;0.20;99.90;;;;;;6250333;22;20091;-79
2023/03/08 04:49:37;;;;;;;0.80;0.30;;;0.10;99.90;;;;;;6250769;22;20026;-79
2023/03/08 04:52:03;;;;;;;1.48;0.45;;;0.20;99.90;;;;;;6250747;22;20051;-79
2023/03/08 04:54:29;;;;;;;3.78;0.40;;;0.10;99.90;;;;;;6250533;22;20440;-79
2023/03/08 04:56:54;;;;;;;0.40;0.20;;;0.10;99.90;;;;;;6250809;22;20061;-79
2023/03/08 04:59:20;;;;;;;0.40;0.20;;;0.00;99.90;;;;;;6250682;22;20028;-79
2023/03/08 05:01:46;;;;;;;3.13;0.40;;;0.00;99.90;;;;;;6250997;22;20337;-79
2023/03/08 05:04:12;;;;;;;1.48;0.40;;;0.00;99.90;;;;;;6250722;22;20447;-79
2023/03/08 05:06:37;;;;;;;2.00;0.40;;;0.00;99.90;;;;;;6250647;22;20436;-79
2023/03/08 05:09:03;;;;;;;2.00;0.40;;;-0.10;99.90;;;;;;6250470;22;20039;-79
2023/03/08 05:11:29;;;;;;;1.40;0.40;;;-0.10;99.90;;;;;;6250350;22;20443;-79
2023/03/08 05:13:56;;;;;;;0.63;0.32;;;-0.10;99.90;;;;;;6250306;22;20324;-79
2023/03/08 05:16:23;;;;;;;4.32;0.63;;;0.00;99.90;;;;;;6250483;22;20012;-79
2023/03/08 05:18:48;;;;;;;1.23;0.40;;;0.00;99.90;;;;;;6250367;22;20020;-79
2023/03/08 05:21:16;;;;;;;1.10;0.38;;;-0.10;99.90;;;;;;6277554;22;20031;-79
2023/03/08 05:23:43;;;;;;;0.38;0.22;;;-0.10;99.90;;;;;;6250247;22;20069;-79
2023/03/08 05:26:11;;;;;;;0.82;0.25;;;0.00;99.90;;;;;;6250437;22;20046;-79
2023/03/08 05:28:37;;;;;;;5.40;0.90;;;0.00;99.90;;;;;;6250472;22;20095;-79
2023/03/08 05:31:09;;;;;;;2.65;0.43;;;-0.10;99.90;;;;;;6250358;22;20051;-79
2023/03/08 05:33:35;;;;;;;4.90;0.97;;;0.00;99.90;;;;;;6250339;22;20016;-79
2023/03/08 05:36:01;;;;;;;2.58;0.55;;;0.00;99.90;;;;;;6250076;22;20024;-79
2023/03/08 05:38:27;;;;;;;3.08;0.57;;;0.00;99.90;;;;;;6250185;22;20094;-79
2023/03/08 05:40:53;;;;;;;2.88;0.50;;;0.00;99.90;;;;;;6250352;22;20015;-79
2023/03/08 05:43:18;;;;;;;0.88;0.43;;;0.00;99.90;;;;;;6250256;22;20022;-79
2023/03/08 05:46:02;;;;;;;1.65;0.50;;;0.00;99.90;;;;;;6250713;22;20102;-79
2023/03/08 05:48:29;;;;;;;7.88;4.40;;;0.00;99.90;;;;;;6250116;22;20099;-79
2023/03/08 05:50:55;;;;;;;6.00;3.47;;;0.00;99.90;;;;;;6250088;22;20030;-79
2023/03/08 05:53:21;;;;;;;17.73;9.90;;;0.00;99.90;;;;;;6277397;22;20085;-79
2023/03/08 05:55:47;;;;;;;3.33;1.15;;;0.10;99.90;;;;;;6249981;22;20064;-79
2023/03/08 05:58:13;;;;;;;1.58;0.50;;;0.10;99.90;;;;;;6250164;22;20023;-79
2023/03/08 06:00:39;;;;;;;2.70;0.60;;;0.20;99.90;;;;;;6250019;22;20423;-79
2023/03/08 06:03:05;;;;;;;1.35;0.80;;;0.00;99.90;;;;;;6249842;22;20073;-79
2023/03/08 06:05:32;;;;;;;3.42;1.33;;;0.20;99.90;;;;;;6250114;22;20102;-79
2023/03/08 06:07:58;;;;;;;2.40;0.85;;;0.20;99.90;;;;;;6249966;22;20030;-79
2023/03/08 06:10:24;;;;;;;1.80;0.70;;;0.20;99.90;;;;;;6249914;22;20016;-79
2023/03/08 06:12:50;;;;;;;3.95;0.65;;;0.20;99.90;;;;;;6249836;22;20018;-79
2023/03/08 06:15:15;;;;;;;1.17;0.55;;;0.20;99.90;;;;;;6249877;22;20012;-79
2023/03/08 06:17:41;;;;;;;1.20;0.57;;;0.20;99.90;;;;;;6249812;22;20093;-79
2023/03/08 06:20:08;;;;;;;1.92;0.50;;;0.10;99.90;;;;;;6249658;22;20026;-79
2023/03/08 06:22:34;;;;;;;3.38;0.65;;;0.10;99.90;;;;;;6249572;22;20075;-79
2023/03/08 06:25:00;;;;;;;2.38;0.50;;;0.10;99.90;;;;;;6248825;22;20060;-79
2023/03/08 06:27:26;;;;;;;2.72;0.57;;;0.30;99.90;;;;;;6248134;22;20019;-79
2023/03/08 06:29:52;;;;;;;2.00;0.60;;;0.20;99.90;;;;;;6248513;22;20027;-79
2023/03/08 06:32:18;;;;;;;0.80;0.40;;;0.30;99.90;;;;;;6249617;22;20142;-79
2023/03/08 06:34:45;;;;;;;3.58;0.90;;;0.50;99.90;;;;;;6249677;22;20332;-79
2023/03/08 06:37:11;;;;;;;0.55;0.30;;;0.50;99.90;;;;;;6249513;22;20093;-79
2023/03/08 06:39:37;;;;;;;3.03;0.32;;;0.70;99.90;;;;;;6249793;22;20317;-79
2023/03/08 06:42:02;;;;;;;0.88;0.17;;;0.70;99.90;;;;;;6249722;22;20015;-79
2023/03/08 06:44:29;;;;;;;1.50;0.30;;;0.70;99.90;;;;;;6249530;22;20023;-79
2023/03/08 06:46:55;;;;;;;1.55;0.20;;;0.70;99.90;;;;;;6276764;22;20482;-79
2023/03/08 06:49:21;;;;;;;0.35;0.20;;;0.70;99.90;;;;;;6249647;22;20038;-79
2023/03/08 06:51:47;;;;;;;1.67;0.30;;;0.70;99.90;;;;;;6249443;22;20019;-80
2023/03/08 06:54:16;;;;;;;1.88;0.55;;;0.70;99.90;;;;;;6249516;22;20019;-79
2023/03/08 06:56:46;;;;;;;1.38;0.40;;;0.70;99.90;;;;;;6249522;22;20074;-79
2023/03/08 06:59:13;;;;;;;2.15;0.65;;;0.70;99.90;;;;;;6249712;22;20015;-79
2023/03/08 07:01:40;;;;;;;1.52;0.43;;;0.70;99.90;;;;;;6249461;22;20058;-80
2023/03/08 07:04:06;;;;;;;1.85;0.60;;;0.70;99.90;;;;;;6249689;22;20019;-79
2023/03/08 07:06:32;;;;;;;3.53;0.47;;;0.70;99.90;;;;;;6249850;22;20047;-79
2023/03/08 07:08:57;;;;;;;2.90;0.77;;;0.70;99.90;;;;;;6279066;22;20016;-79
2023/03/08 07:11:25;;;;;;;3.08;0.70;;;0.60;99.90;;;;;;6251597;22;20382;-79
2023/03/08 07:13:51;;;;;;;5.97;0.88;;;0.60;99.90;;;;;;6251390;22;20051;-79
2023/03/08 07:16:17;;;;;;;4.03;0.75;;;0.70;99.90;;;;;;6251412;22;20015;-79
2023/03/08 07:18:42;;;;;;;2.05;0.70;;;0.70;99.90;;;;;;6251406;22;20435;-79
2023/03/08 07:21:09;;;;;;;2.47;0.82;;;0.80;99.90;;;;;;6251443;22;20016;-79
2023/03/08 07:23:35;;;;;;;5.47;1.08;;;0.80;99.90;;;;;;6251394;22;20016;-80
2023/03/08 07:26:08;;;;;;;2.10;0.70;;;0.80;99.90;;;;;;6251356;22;20031;-79
2023/03/08 07:28:34;;;;;;;3.92;1.33;;;0.90;99.90;;;;;;6251369;22;20024;-79
2023/03/08 07:31:00;;;;;;;4.50;0.90;;;0.80;99.90;;;;;;6251361;22;20012;-79
2023/03/08 07:33:26;;;;;;;4.22;0.88;;;0.90;99.90;;;;;;6251253;22;20062;-79
2023/03/08 07:35:51;;;;;;;3.55;1.27;;;1.00;99.90;;;;;;6251382;22;20352;-79
2023/03/08 07:38:18;;;;;;;5.28;1.67;;;1.10;99.90;;;;;;6251202;22;20012;-80
2023/03/08 07:40:43;;;;;;;5.18;0.80;;;1.00;99.90;;;;;;6251180;22;20015;-79
2023/03/08 07:43:09;;;;;;;2.63;0.88;;;1.00;99.90;;;;;;6251263;22;20019;-79
2023/03/08 07:45:38;;;;;;;4.88;1.60;;;1.10;99.90;;;;;;6278104;22;20351;-79
2023/03/08 07:48:05;;;;;;;10.82;3.65;;;1.20;99.90;;;;;;6251211;22;20082;-79
2023/03/08 07:50:31;;;;;;;8.52;3.40;;;1.20;99.90;;;;;;6251751;22;20077;-79
2023/03/08 07:52:58;;;;;;;8.25;4.53;;;1.20;99.90;;;;;;6251064;22;20016;-80
2023/03/08 07:55:26;;;;;;;8.70;3.08;;;1.30;99.90;;;;;;6251154;22;20020;-80
2023/03/08 07:57:52;;;;;;;5.18;2.05;;;1.20;99.90;;;;;;6251591;22;20129;-81
2023/03/08 08:00:18;;;;;;;4.82;1.92;;;1.30;99.90;;;;;;6250840;22;20054;-81
2023/03/08 08:02:48;;;;;;;5.07;2.17;;;1.30;99.90;;;;;;6250851;22;20026;-81
2023/03/08 08:05:14;;;;;;;5.13;1.85;;;1.50;99.90;;;;;;6251016;22;20031;-81
2023/03/08 08:07:39;;;;;;;3.75;0.88;;;1.50;99.90;;;;;;6250851;22;20016;-82
2023/03/08 08:10:07;;;;;;;5.90;1.30;;;1.50;99.90;;;;;;6250280;22;20014;-81
2023/03/08 08:12:33;;;;;;;6.53;2.30;;;1.60;99.90;;;;;;6250744;22;20016;-81
2023/03/08 08:14:58;;;;;;;5.82;1.35;;;1.60;99.90;;;;;;6250488;22;20439;-83
2023/03/08 08:17:24;;;;;;;3.83;1.00;;;1.70;99.90;;;;;;6250525;22;20011;-81
2023/03/08 08:19:50;;;;;;;4.63;1.10;;;1.70;99.90;;;;;;6249943;22;20388;-81
2023/03/08 08:22:16;;;;;;;4.63;1.25;;;1.80;99.90;;;;;;6250673;22;20014;-81
2023/03/08 08:24:41;;;;;;;3.50;1.15;;;1.70;99.90;;;;;;6277466;22;20058;-81
2023/03/08 08:27:07;;;;;;;3.10;1.00;;;1.80;99.90;;;;;;6250575;22;20069;-81
2023/03/08 08:29:32;;;;;;;4.22;1.13;;;1.80;99.90;;;;;;6250593;22;20027;-81
2023/03/08 08:31:58;;;;;;;3.53;1.00;;;1.80;99.90;;;;;;6250815;22;20023;-81
2023/03/08 08:34:24;;;;;;;6.95;1.35;;;1.90;99.90;;;;;;6250616;22;20020;-82
2023/03/08 08:36:50;;;;;;;3.45;1.15;;;1.70;99.90;;;;;;6250458;22;20012;-81
2023/03/08 08:39:15;;;;;;;3.00;1.10;;;1.70;99.90;;;;;;6250509;22;20027;-81
2023/03/08 08:41:41;;;;;;;2.75;1.45;;;1.70;99.90;;;;;;6250387;22;20019;-81
2023/03/08 08:44:07;;;;;;;5.30;1.20;;;1.70;99.90;;;;;;6250470;22;20384;-81
2023/03/08 08:46:33;;;;;;;5.03;1.30;;;1.70;99.90;;;;;;6250167;22;20047;-82
2023/03/08 08:49:00;;;;;;;4.90;1.70;;;1.70;99.90;;;;;;6250445;22;20080;-82
2023/03/08 08:51:26;;;;;;;3.70;1.50;;;1.80;99.90;;;;;;6250501;22;20019;-83
2023/03/08 08:53:53;;;;;;;9.32;1.60;;;1.80;99.90;;;;;;6250181;22;20023;-82
2023/03/08 08:56:21;;;;;;;5.13;1.50;;;1.80;99.90;;;;;;6250004;22;20086;-82
2023/03/08 08:58:47;;;;;;;4.63;1.75;;;1.90;99.90;;;;;;6250791;22;20054;-83
2023/03/08 09:01:19;;;;;;;5.60;1.30;;;1.90;99.90;;;;;;6249903;22;20019;-83
2023/03/08 09:03:46;;;;;;;3.90;1.33;;;2.00;99.90;;;;;;6250301;22;20058;-86
2023/03/08 09:06:13;;;;;;;2.92;1.33;;;2.00;99.90;;;;;;6250158;22;20026;-84
2023/03/08 09:08:39;;;;;;;3.17;1.40;;;2.00;99.90;;;;;;6250133;22;20031;-86
2023/03/08 09:11:07;;;;;;;3.95;1.30;;;2.10;99.90;;;;;;6249918;22;20016;-86
2023/03/08 09:13:32;;;;;;;4.22;1.55;;;2.20;99.90;;;;;;6249987;22;20041;-85
2023/03/08 09:15:58;;;;;;;13.80;1.20;;;2.20;99.90;;;;;;6250628;22;20058;-84
2023/03/08 09:18:24;;;;;;;3.60;1.25;;;2.20;99.90;;;;;;6276689;22;20012;-86
2023/03/08 09:20:50;;;;;;;3.78;0.90;;;2.30;99.90;;;;;;6276753;22;20024;-86
2023/03/08 09:23:16;;;;;;;4.90;1.45;;;2.30;99.90;;;;;;6277226;22;20016;-86
2023/03/08 09:25:42;;;;;;;5.20;0.98;;;2.30;99.90;;;;;;6249750;22;20355;-85
2023/03/08 09:28:09;;;;;;;2.80;0.98;;;2.40;99.90;;;;;;6249857;22;20038;-85
2023/03/08 09:30:35;;;;;;;2.47;0.82;;;2.50;99.90;;;;;;6277055;22;20077;-86
2023/03/08 09:33:02;;;;;;;4.55;1.48;;;2.50;99.90;;;;;;6276807;22;20025;-86
2023/03/08 09:35:29;;;;;;;5.25;1.50;;;2.60;99.90;;;;;;6277070;22;20023;-86
2023/03/08 09:37:55;;;;;;;7.65;1.77;;;2.80;99.90;;;;;;6249802;22;20519;-87
2023/03/08 09:40:24;;;;;;;5.25;1.75;;;2.80;99.90;;;;;;6249642;22;20062;-86
2023/03/08 09:42:51;;;;;;;5.82;1.20;;;2.90;99.90;;;;;;6249948;22;20069;-86
2023/03/08 09:45:22;;;;;;;3.55;1.50;;;3.00;99.90;;;;;;6249751;22;20016;-86
2023/03/08 09:48:09;;;;;;;3.55;1.10;;;3.10;99.90;;;;;;6249990;22;20325;-85
2023/03/08 09:50:58;;;;;;;5.18;1.15;;;3.20;99.90;;;;;;6249742;22;20466;-85
2023/03/08 09:53:33;;;;;;;3.47;1.10;;;3.30;99.90;;;;;;6249534;22;20031;-85
2023/03/08 09:56:05;;;;;;;4.75;1.30;;;3.30;99.90;;;;;;6249810;22;20068;-86
2023/03/08 09:58:42;;;;;;;4.45;1.30;;;3.30;99.90;;;;;;6249616;22;20082;-85
2023/03/08 10:01:26;;;;;;;4.32;1.05;;;3.30;99.90;;;;;;6249550;22;20134;-84
2023/03/08 10:04:26;;;;;;;2.05;1.10;;;3.50;99.90;;;;;;6249759;22;20524;-86
2023/03/08 10:07:05;;;;;;;9.07;1.60;;;3.60;99.90;;;;;;6249661;22;20011;-85
2023/03/08 10:09:36;;;;;;;4.38;1.58;;;3.70;99.90;;;;;;6249587;22;20016;-84
2023/03/08 10:12:10;;;;;;;4.47;0.95;;;3.80;99.90;;;;;;6249488;22;20016;-84
2023/03/08 10:14:48;;;;;;;5.50;1.20;;;3.80;99.90;;;;;;6249394;22;20019;-84
2023/03/08 10:17:26;;;;;;;7.65;1.30;;;3.80;99.90;;;;;;6249615;22;20027;-83
2023/03/08 10:19:58;;;;;;;5.32;1.98;;;3.80;99.90;;;;;;6249609;22;20030;-85
2023/03/08 10:22:30;;;;;;;4.80;1.42;;;3.80;99.90;;;;;;6249708;22;20062;-84
2023/03/08 10:25:22;;;;;;;3.55;1.00;;;3.90;99.90;;;;;;6249237;22;20055;-83
2023/03/08 10:27:51;;;;;;;6.43;0.95;;;4.00;99.90;;;;;;6243819;22;20012;-83
2023/03/08 10:30:18;;;;;;;3.42;0.85;;;3.90;99.90;;;;;;6248936;22;20340;-84
2023/03/08 10:32:48;;;;;;;3.97;1.08;;;4.00;99.90;;;;;;6249172;22;20043;-84
2023/03/08 10:35:15;;;;;;;3.50;1.10;;;4.10;99.90;;;;;;6249171;22;20348;-84
2023/03/08 10:37:41;;;;;;;5.00;1.20;;;4.20;99.90;;;;;;6249228;22;20011;-83
2023/03/08 10:40:20;;;;;;;4.55;1.15;;;4.20;99.90;;;;;;6249414;22;20016;-83
2023/03/08 10:42:59;;;;;;;3.13;0.90;;;4.30;99.90;;;;;;6276502;22;20011;-83
2023/03/08 10:45:27;;;;;;;2.97;1.25;;;4.30;99.90;;;;;;6276865;22;20487;-83
2023/03/08 10:47:56;;;;;;;5.30;1.30;;;4.40;99.90;;;;;;6249664;22;20015;-83
2023/03/08 10:50:24;;;;;;;6.47;2.45;;;4.40;99.90;;;;;;6249553;22;20051;-84
2023/03/08 10:52:50;;;;;;;2.58;0.85;;;4.40;99.90;;;;;;6248908;22;20439;-82
2023/03/08 10:55:20;;;;;;;3.13;0.80;;;4.50;99.90;;;;;;6249224;22;20019;-86
2023/03/08 10:57:51;;;;;;;2.35;0.90;;;4.50;99.90;;;;;;6249656;22;20475;-85
2023/03/08 11:00:24;;;;;;;5.55;1.13;;;4.50;99.90;;;;;;6249314;22;20054;-85
2023/03/08 11:03:02;;;;;;;5.32;0.60;;;4.60;99.90;;;;;;6249163;22;20012;-85
2023/03/08 11:05:30;;;;;;;3.60;0.60;;;4.50;99.90;;;;;;6249312;22;20019;-84
2023/03/08 11:07:58;;;;;;;2.28;0.85;;;4.50;99.90;;;;;;6249081;22;20011;-83
2023/03/08 11:10:27;;;;;;;4.05;0.70;;;4.60;99.90;;;;;;6249415;22;20020;-84
2023/03/08 11:13:30;;;;;;;4.45;0.95;;;4.80;99.90;;;;;;6249194;22;20015;-87
2023/03/08 11:16:05;;;;;;;6.72;1.67;;;4.80;99.90;;;;;;6249496;22;20335;-84
2023/03/08 11:18:46;;;;;;;8.20;3.35;;;5.00;99.90;;;;;;6249128;22;20016;-82
2023/03/08 11:21:17;;;;;;;12.63;3.53;;;5.00;99.90;;;;;;6248435;22;20103;-86
2023/03/08 11:23:55;;;;;;;8.07;2.30;;;5.00;99.90;;;;;;6275184;22;20020;-82
2023/03/08 11:26:57;;;;;;;9.90;3.95;;;5.00;99.90;;;;;;6247719;22;20145;-82
2023/03/08 11:29:40;;;;;;;6.20;1.23;;;4.90;99.90;;;;;;6249247;22;20081;-81
2023/03/08 11:32:36;;;;;;;4.15;0.60;;;4.90;99.90;;;;;;6249352;22;20086;-82
2023/03/08 11:35:08;;;;;;;2.05;0.60;;;5.00;99.90;;;;;;6276351;22;20515;-82
2023/03/08 11:37:36;;;;;;;4.22;0.73;;;4.90;99.90;;;;;;6249671;22;20019;-81
2023/03/08 11:40:20;;;;;;;2.45;0.55;;;4.90;99.90;;;;;;6249155;22;20078;-81
2023/03/08 11:43:26;;;;;;;2.47;0.52;;;4.70;99.90;;;;;;6249262;22;20019;-81
2023/03/08 11:46:04;;;;;;;7.75;1.42;;;4.80;99.90;;;;;;6249113;22;20329;-81
2023/03/08 11:48:45;;;;;;;4.32;0.60;;;4.80;99.90;;;;;;6248156;22;20011;-81
2023/03/08 11:51:47;;;;;;;7.63;0.70;;;4.80;99.90;;;;;;6249099;22;20386;-81
2023/03/08 11:54:27;;;;;;;1.45;0.30;;;4.80;99.90;;;;;;6277954;22;20074;-81
2023/03/08 11:56:58;;;;;;;1.55;0.25;;;4.80;99.90;;;;;;6251015;22;20020;-81
2023/03/08 11:59:35;;;;;;;3.78;0.57;;;5.00;99.90;;;;;;6251049;22;20015;-81
2023/03/08 12:02:07;;;;;;;3.38;0.43;;;5.00;99.90;;;;;;6250854;22;20069;-84
2023/03/08 12:04:55;;;;;;;4.72;0.40;;;5.10;99.90;;;;;;6251038;22;20030;-83
2023/03/08 12:07:27;;;;;;;2.47;0.40;;;5.20;99.90;;;;;;6250864;22;20086;-81
2023/03/08 12:10:02;;;;;;;1.75;0.50;;;5.30;99.90;;;;;;6250995;22;20019;-81
2023/03/08 12:12:33;;;;;;;2.05;0.40;;;5.20;99.90;;;;;;6250677;22;20015;-81
2023/03/08 12:15:14;;;;;;;5.10;0.57;;;5.30;99.90;;;;;;6250787;22;20016;-82
2023/03/08 12:17:47;;;;;;;2.20;0.47;;;5.10;99.90;;;;;;6250837;22;20019;-84
2023/03/08 12:20:13;;;;;;;;;;;5.00;99.90;;;;;;6251360;22;20077;-83
2023/03/08 12:22:55;;;;;;;3.72;0.90;;;5.10;99.90;;;;;;6250784;22;19942;-83
2023/03/08 12:25:28;;;;;;;8.57;0.70;;;5.10;99.90;;;;;;6250719;22;20019;-81
2023/03/08 12:28:23;;;;;;;5.03;0.63;;;5.10;99.90;;;;;;6250740;22;20020;-85
2023/03/08 12:31:10;;;;;;;3.72;1.20;;;5.20;99.90;;;;;;6250752;22;20507;-80
2023/03/08 12:33:36;;;;;;;2.55;0.60;;;5.30;99.90;;;;;;6278063;22;20073;-80
2023/03/08 12:36:04;;;;;;;4.53;0.73;;;5.40;99.90;;;;;;6250560;22;20012;-79
2023/03/08 12:38:40;;;;;;;2.78;0.52;;;5.30;99.90;;;;;;6278012;22;20011;-80
2023/03/08 12:41:27;;;;;;;2.80;0.60;;;5.30;99.90;;;;;;6277712;22;20026;-81
2023/03/08 12:44:28;;;;;;;3.80;0.60;;;5.30;99.90;;;;;;6250759;22;20023;-82
2023/03/08 12:47:01;;;;;;;6.65;1.15;;;5.30;99.90;;;;;;6250366;22;20039;-87
2023/03/08 12:49:34;;;;;;;5.40;0.60;;;5.20;99.90;;;;;;6250500;22;20067;-81
2023/03/08 12:52:06;;;;;;;2.75;0.60;;;5.30;99.90;;;;;;6250665;22;20023;-86
2023/03/08 12:54:34;;;;;;;4.53;0.57;;;5.30;99.90;;;;;;6250402;22;20016;-79
2023/03/08 12:57:02;;;;;;;1.70;0.60;;;5.30;99.90;;;;;;6250525;22;20019;-80
2023/03/08 12:59:40;;;;;;;3.22;0.32;;;5.10;99.90;;;;;;6277462;22;20011;-80
2023/03/08 13:02:25;;;;;;;2.70;0.60;;;5.10;99.90;;;;;;6250181;22;20409;-84
2023/03/08 13:05:24;;;;;;;2.67;0.63;;;5.10;99.90;;;;;;6277452;22;20026;-81
2023/03/08 13:08:11;;;;;;;4.22;0.70;;;5.10;99.90;;;;;;6251097;22;20058;-80
2023/03/08 13:10:38;;;;;;;3.28;0.50;;;5.20;99.90;;;;;;6277559;22;20332;-83